Time;durP1;ratioP1;P1;durP2;ratioP2;P2;SDS_P1;SDS_P2;PMS_P1;PMS_P2;Temp;Humidity;BMP_temperature;BMP_pressure;BME280_temperature;BME280_humidity;BME280_pressure;Samples;Min_cycle;Max_cycle;Signal;HPM_P1;HPM_P2
2021/09/06 00:01:20;;;;;;;6.18;3.75;;;17.00;99.90;;;;;;5054495;28;20048;-85
2021/09/06 00:03:46;;;;;;;6.28;4.32;;;17.10;99.90;;;;;;5054440;28;20567;-86
2021/09/06 00:06:12;;;;;;;9.93;4.43;;;16.70;99.90;;;;;;5054156;28;20037;-85
2021/09/06 00:08:38;;;;;;;9.45;4.13;;;16.70;99.90;;;;;;5054831;28;20021;-85
2021/09/06 00:11:05;;;;;;;6.05;3.95;;;16.50;99.90;;;;;;5054299;28;20025;-85
2021/09/06 00:13:32;;;;;;;5.45;3.97;;;16.80;99.90;;;;;;5054731;28;20024;-85
2021/09/06 00:15:57;;;;;;;9.02;4.35;;;16.80;99.90;;;;;;5056754;28;20029;-85
2021/09/06 00:18:25;;;;;;;10.05;4.55;;;16.60;99.90;;;;;;5054370;28;20021;-85
2021/09/06 00:20:51;;;;;;;5.88;4.07;;;16.30;99.90;;;;;;5054383;28;20033;-85
2021/09/06 00:23:17;;;;;;;5.68;3.90;;;16.40;99.90;;;;;;5055343;28;20029;-86
2021/09/06 00:25:43;;;;;;;7.78;3.78;;;16.20;99.90;;;;;;5053561;28;20095;-86
2021/09/06 00:28:09;;;;;;;9.52;3.83;;;15.90;99.90;;;;;;5053338;28;20017;-85
2021/09/06 00:30:35;;;;;;;6.03;3.88;;;16.00;99.90;;;;;;5053831;28;20032;-85
2021/09/06 00:33:01;;;;;;;6.88;4.10;;;16.50;99.90;;;;;;5054822;28;20029;-85
2021/09/06 00:35:26;;;;;;;6.88;3.97;;;16.70;99.90;;;;;;5057225;28;20049;-86
2021/09/06 00:37:52;;;;;;;5.05;3.95;;;16.60;99.90;;;;;;5058014;28;20052;-86
2021/09/06 00:40:18;;;;;;;6.32;4.15;;;16.40;99.90;;;;;;5057822;28;20029;-85
2021/09/06 00:42:44;;;;;;;7.50;4.50;;;16.40;99.90;;;;;;5058048;28;20032;-85
2021/09/06 00:45:10;;;;;;;6.15;3.88;;;16.30;99.90;;;;;;5057574;28;20033;-85
2021/09/06 00:47:36;;;;;;;8.65;3.75;;;16.50;99.90;;;;;;5058306;28;20028;-85
2021/09/06 00:50:06;;;;;;;9.15;4.70;;;16.60;99.90;;;;;;5058462;28;20057;-85
2021/09/06 00:52:33;;;;;;;4.78;3.90;;;16.40;99.90;;;;;;5058240;28;20104;-86
2021/09/06 00:54:59;;;;;;;11.13;4.50;;;16.40;99.90;;;;;;5059766;28;20021;-85
2021/09/06 00:57:25;;;;;;;5.95;4.07;;;16.60;99.90;;;;;;5059050;28;20033;-85
2021/09/06 00:59:51;;;;;;;13.00;4.43;;;16.40;99.90;;;;;;5057776;28;20453;-85
2021/09/06 01:02:17;;;;;;;6.15;4.13;;;16.60;99.90;;;;;;5057494;28;20112;-85
2021/09/06 01:04:42;;;;;;;5.22;3.80;;;16.50;99.90;;;;;;5057049;28;20503;-86
2021/09/06 01:07:09;;;;;;;9.30;4.30;;;16.60;99.90;;;;;;5057432;28;20370;-85
2021/09/06 01:09:35;;;;;;;6.05;4.20;;;16.50;99.90;;;;;;5058556;28;20139;-85
2021/09/06 01:12:01;;;;;;;7.20;4.10;;;16.50;99.90;;;;;;5056943;28;20071;-86
2021/09/06 01:14:26;;;;;;;6.78;4.00;;;16.40;99.90;;;;;;5056541;28;20025;-86
2021/09/06 01:16:53;;;;;;;9.15;4.38;;;16.30;99.90;;;;;;5056579;28;20062;-86
2021/09/06 01:19:18;;;;;;;7.25;4.07;;;16.10;99.90;;;;;;5056115;28;20492;-85
2021/09/06 01:21:45;;;;;;;5.47;4.30;;;16.40;99.90;;;;;;5056445;28;20017;-85
2021/09/06 01:24:10;;;;;;;5.20;3.60;;;16.50;99.90;;;;;;5056350;28;20024;-86
2021/09/06 01:26:36;;;;;;;7.93;4.45;;;16.60;99.90;;;;;;5056002;28;20045;-86
2021/09/06 01:29:05;;;;;;;4.70;4.00;;;16.80;99.90;;;;;;5056573;28;20032;-85
2021/09/06 01:31:31;;;;;;;5.32;4.13;;;16.70;99.90;;;;;;5056543;28;20021;-85
2021/09/06 01:33:57;;;;;;;4.80;4.05;;;16.50;99.90;;;;;;5056112;28;20366;-86
2021/09/06 01:36:22;;;;;;;6.43;4.30;;;16.50;99.90;;;;;;5055810;28;20036;-85
2021/09/06 01:38:48;;;;;;;5.55;4.03;;;16.50;99.90;;;;;;5056145;28;20052;-85
2021/09/06 01:41:14;;;;;;;5.13;3.80;;;16.40;99.90;;;;;;5055729;28;20500;-85
2021/09/06 01:43:40;;;;;;;5.68;4.07;;;16.30;99.90;;;;;;5055779;28;20480;-85
2021/09/06 01:46:05;;;;;;;7.15;4.40;;;16.50;99.90;;;;;;5054862;28;20108;-85
2021/09/06 01:48:31;;;;;;;5.78;4.10;;;16.50;99.90;;;;;;5056407;28;20424;-85
2021/09/06 01:50:57;;;;;;;9.82;4.25;;;16.50;99.90;;;;;;5056124;28;20021;-85
2021/09/06 01:53:23;;;;;;;5.38;4.25;;;16.50;99.90;;;;;;5057168;28;20393;-85
2021/09/06 01:55:48;;;;;;;6.90;4.05;;;16.60;99.90;;;;;;5060358;28;20021;-86
2021/09/06 01:58:14;;;;;;;6.28;4.00;;;16.10;99.90;;;;;;5059211;28;20036;-86
2021/09/06 02:00:40;;;;;;;6.85;4.32;;;16.00;99.90;;;;;;5057116;28;20028;-85
2021/09/06 02:03:06;;;;;;;7.70;4.45;;;16.30;99.90;;;;;;5056383;28;20021;-85
2021/09/06 02:05:31;;;;;;;7.50;4.10;;;16.20;99.90;;;;;;5055601;28;20116;-86
2021/09/06 02:07:57;;;;;;;8.30;4.47;;;16.30;99.90;;;;;;5056902;28;20029;-86
2021/09/06 02:10:23;;;;;;;9.85;4.30;;;16.40;99.90;;;;;;5057091;28;20377;-85
2021/09/06 02:12:48;;;;;;;6.10;4.50;;;16.30;99.90;;;;;;5055340;28;20017;-86
2021/09/06 02:15:14;;;;;;;5.20;3.78;;;16.30;99.90;;;;;;5055198;28;20020;-86
2021/09/06 02:17:40;;;;;;;8.30;4.20;;;16.20;99.90;;;;;;5055393;28;20120;-85
2021/09/06 02:20:06;;;;;;;7.68;4.10;;;16.30;99.90;;;;;;5055295;28;20412;-87
2021/09/06 02:22:31;;;;;;;7.97;3.90;;;16.40;99.90;;;;;;5055016;28;20111;-85
2021/09/06 02:24:57;;;;;;;10.13;4.25;;;16.30;99.90;;;;;;5055110;28;20552;-85
2021/09/06 02:27:23;;;;;;;6.97;4.22;;;16.40;99.90;;;;;;5055119;28;20056;-86
2021/09/06 02:29:50;;;;;;;5.18;4.05;;;16.30;99.90;;;;;;5038370;28;20045;-85
2021/09/06 02:32:15;;;;;;;5.95;3.97;;;16.20;99.90;;;;;;5054537;28;20025;-86
2021/09/06 02:34:41;;;;;;;5.15;3.97;;;16.20;99.90;;;;;;5056452;28;20052;-86
2021/09/06 02:37:07;;;;;;;8.85;4.20;;;16.30;99.90;;;;;;5054438;28;20500;-85
2021/09/06 02:39:33;;;;;;;5.25;4.22;;;16.10;99.90;;;;;;5054917;28;20032;-85
2021/09/06 02:41:59;;;;;;;8.70;4.32;;;16.10;99.90;;;;;;5055964;28;20057;-85
2021/09/06 02:44:28;;;;;;;7.20;4.35;;;16.10;99.90;;;;;;5054558;28;20021;-85
2021/09/06 02:46:55;;;;;;;13.23;4.57;;;16.20;99.90;;;;;;5056336;28;20032;-86
2021/09/06 02:49:20;;;;;;;5.13;4.00;;;16.30;99.90;;;;;;5055033;28;20025;-85
2021/09/06 02:51:46;;;;;;;8.68;4.30;;;16.10;99.90;;;;;;5055468;28;20078;-85
2021/09/06 02:54:12;;;;;;;6.00;4.00;;;16.00;99.90;;;;;;5054719;28;20093;-85
2021/09/06 02:56:38;;;;;;;9.88;4.25;;;16.00;99.90;;;;;;5054025;28;20159;-85
2021/09/06 02:59:04;;;;;;;8.60;4.30;;;15.90;99.90;;;;;;5054060;28;20067;-86
2021/09/06 03:01:30;;;;;;;6.97;4.50;;;16.00;99.90;;;;;;5055707;28;20036;-86
2021/09/06 03:03:55;;;;;;;5.40;4.30;;;16.00;99.90;;;;;;5054240;28;20025;-85
2021/09/06 03:06:21;;;;;;;6.70;4.18;;;15.90;99.90;;;;;;5055535;28;20029;-86
2021/09/06 03:08:47;;;;;;;6.43;4.25;;;16.00;99.90;;;;;;5054304;28;20115;-85
2021/09/06 03:11:12;;;;;;;5.97;4.35;;;15.90;99.90;;;;;;5055984;28;20025;-85
2021/09/06 03:13:38;;;;;;;6.00;4.28;;;16.00;99.90;;;;;;5054187;28;20025;-86
2021/09/06 03:16:04;;;;;;;8.02;4.55;;;16.10;99.90;;;;;;5054381;28;20048;-85
2021/09/06 03:18:30;;;;;;;6.00;3.85;;;16.00;99.90;;;;;;5054421;28;20597;-86
2021/09/06 03:20:56;;;;;;;5.32;3.78;;;16.10;99.90;;;;;;5054217;28;20059;-85
2021/09/06 03:23:21;;;;;;;5.60;3.85;;;16.10;99.90;;;;;;5053771;28;20021;-86
2021/09/06 03:25:47;;;;;;;4.88;4.07;;;16.10;99.90;;;;;;5053725;28;20055;-85
2021/09/06 03:28:13;;;;;;;5.65;4.47;;;16.10;99.90;;;;;;5053965;28;20050;-85
2021/09/06 03:30:39;;;;;;;8.43;4.45;;;16.20;99.90;;;;;;5053784;28;20401;-85
2021/09/06 03:33:04;;;;;;;7.75;4.25;;;16.10;99.90;;;;;;5053278;28;20021;-85
2021/09/06 03:35:30;;;;;;;4.90;3.83;;;15.90;99.90;;;;;;5055215;28;20033;-86
2021/09/06 03:37:56;;;;;;;10.07;5.18;;;15.70;99.90;;;;;;5053658;28;20025;-86
2021/09/06 03:40:21;;;;;;;6.15;4.07;;;15.60;99.90;;;;;;5054682;28;20509;-86
2021/09/06 03:42:48;;;;;;;8.55;4.43;;;15.60;99.90;;;;;;5054764;28;20029;-85
2021/09/06 03:45:14;;;;;;;4.32;3.75;;;15.60;99.90;;;;;;5054355;28;20040;-85
2021/09/06 03:47:39;;;;;;;8.20;4.35;;;15.60;99.90;;;;;;5053519;28;20480;-86
2021/09/06 03:50:05;;;;;;;9.77;3.95;;;15.40;99.90;;;;;;5053533;28;20021;-85
2021/09/06 03:52:31;;;;;;;5.97;4.40;;;15.40;99.90;;;;;;5053635;28;20024;-85
2021/09/06 03:54:57;;;;;;;6.57;4.05;;;15.50;99.90;;;;;;5053655;28;20546;-85
2021/09/06 03:57:23;;;;;;;9.98;4.60;;;15.60;99.90;;;;;;5053273;28;20025;-86
2021/09/06 03:59:48;;;;;;;7.53;4.32;;;15.60;99.90;;;;;;5053408;28;20063;-85
2021/09/06 04:02:14;;;;;;;7.28;4.13;;;15.70;99.90;;;;;;5053442;28;20035;-85
2021/09/06 04:04:39;;;;;;;7.15;4.28;;;15.90;99.90;;;;;;5053687;28;20064;-85
2021/09/06 04:07:05;;;;;;;6.07;4.38;;;15.90;99.90;;;;;;5053800;28;20025;-86
2021/09/06 04:09:31;;;;;;;6.07;4.50;;;16.10;99.90;;;;;;5058129;28;20025;-85
2021/09/06 04:11:57;;;;;;;8.60;4.07;;;15.90;99.90;;;;;;5058292;28;20384;-86
2021/09/06 04:14:24;;;;;;;5.95;4.28;;;15.50;99.90;;;;;;5055377;28;20393;-85
2021/09/06 04:16:49;;;;;;;8.65;4.55;;;15.70;99.90;;;;;;5054029;28;20550;-86
2021/09/06 04:19:15;;;;;;;6.80;4.28;;;15.80;99.90;;;;;;5054087;28;20024;-85
2021/09/06 04:21:41;;;;;;;7.50;4.43;;;15.70;99.90;;;;;;5055187;28;20473;-86
2021/09/06 04:24:06;;;;;;;5.70;4.00;;;15.80;99.90;;;;;;5055157;28;20021;-86
2021/09/06 04:26:32;;;;;;;5.15;3.95;;;15.70;99.90;;;;;;5053437;28;20080;-85
2021/09/06 04:28:58;;;;;;;6.60;4.18;;;15.80;99.90;;;;;;5053522;28;20116;-86
2021/09/06 04:31:23;;;;;;;6.32;4.28;;;15.80;99.90;;;;;;5053781;28;20028;-85
2021/09/06 04:33:49;;;;;;;8.45;4.18;;;16.00;99.90;;;;;;5053529;28;20481;-86
2021/09/06 04:36:15;;;;;;;7.00;4.47;;;15.90;99.90;;;;;;5055160;28;20405;-85
2021/09/06 04:38:41;;;;;;;5.50;3.63;;;15.90;99.90;;;;;;5053616;28;20029;-86
2021/09/06 04:41:06;;;;;;;5.47;3.90;;;15.80;99.90;;;;;;5052580;28;20477;-86
2021/09/06 04:43:32;;;;;;;8.65;4.07;;;15.70;99.90;;;;;;5053404;28;20090;-86
2021/09/06 04:45:58;;;;;;;7.85;4.28;;;15.70;99.90;;;;;;5053463;28;20048;-85
2021/09/06 04:48:23;;;;;;;6.63;4.60;;;15.40;99.90;;;;;;5053625;28;20017;-85
2021/09/06 04:50:49;;;;;;;5.95;4.18;;;15.20;99.90;;;;;;5053890;28;20025;-85
2021/09/06 04:53:15;;;;;;;7.88;4.85;;;15.40;99.90;;;;;;5054073;28;20021;-85
2021/09/06 04:55:40;;;;;;;7.20;4.15;;;15.20;99.90;;;;;;5053435;28;20051;-86
2021/09/06 04:58:06;;;;;;;7.07;4.10;;;15.50;99.90;;;;;;5053649;28;20032;-85
2021/09/06 05:00:32;;;;;;;8.20;4.30;;;15.50;99.90;;;;;;5053335;28;20554;-86
2021/09/06 05:02:57;;;;;;;8.00;4.45;;;15.30;99.90;;;;;;5052567;28;20051;-85
2021/09/06 05:05:23;;;;;;;6.57;3.72;;;15.40;99.90;;;;;;5052514;28;20025;-86
2021/09/06 05:07:49;;;;;;;7.78;4.40;;;15.20;99.90;;;;;;5052815;28;20116;-85
2021/09/06 05:10:14;;;;;;;7.88;4.05;;;15.40;99.90;;;;;;5053852;28;20025;-85
2021/09/06 05:12:40;;;;;;;7.38;4.15;;;15.60;99.90;;;;;;5052697;28;20021;-85
2021/09/06 05:15:06;;;;;;;6.50;4.10;;;15.50;99.90;;;;;;5053526;28;20024;-86
2021/09/06 05:17:32;;;;;;;6.18;4.13;;;15.30;99.90;;;;;;5052245;28;20056;-86
2021/09/06 05:19:57;;;;;;;5.63;4.07;;;15.50;99.90;;;;;;5053188;28;20119;-85
2021/09/06 05:22:23;;;;;;;6.95;4.25;;;15.40;99.90;;;;;;5055852;28;20024;-85
2021/09/06 05:24:53;;;;;;;6.00;4.30;;;15.30;99.90;;;;;;5055790;28;20036;-85
2021/09/06 05:27:20;;;;;;;10.10;4.97;;;15.40;99.90;;;;;;5055985;28;20037;-86
2021/09/06 05:29:45;;;;;;;8.38;4.55;;;15.30;99.90;;;;;;5055937;28;20055;-85
2021/09/06 05:32:11;;;;;;;4.75;3.90;;;15.30;99.90;;;;;;5055730;28;20017;-86
2021/09/06 05:34:37;;;;;;;5.72;3.78;;;15.30;99.90;;;;;;5056365;28;20032;-85
2021/09/06 05:37:02;;;;;;;10.00;4.63;;;15.30;99.90;;;;;;5056858;28;20533;-85
2021/09/06 05:39:28;;;;;;;8.50;4.13;;;15.20;99.90;;;;;;5055833;28;20167;-85
2021/09/06 05:41:54;;;;;;;6.82;4.65;;;15.40;99.90;;;;;;5055547;28;20021;-86
2021/09/06 05:44:19;;;;;;;8.43;4.35;;;15.30;99.90;;;;;;5055652;28;20021;-85
2021/09/06 05:46:45;;;;;;;5.32;3.75;;;15.40;99.90;;;;;;5055471;28;20562;-86
2021/09/06 05:49:12;;;;;;;6.32;4.22;;;15.60;99.90;;;;;;5054995;28;20123;-86
2021/09/06 05:51:37;;;;;;;6.28;4.15;;;15.70;99.90;;;;;;5055440;28;20393;-86
2021/09/06 05:54:03;;;;;;;5.65;3.60;;;15.80;99.90;;;;;;5055275;28;20029;-86
2021/09/06 05:56:29;;;;;;;5.90;4.32;;;15.80;99.90;;;;;;5055743;28;20024;-86
2021/09/06 05:58:55;;;;;;;7.13;3.88;;;16.00;99.90;;;;;;5055194;28;20025;-88
2021/09/06 06:01:21;;;;;;;8.93;4.32;;;15.90;99.90;;;;;;5054792;28;20493;-87
2021/09/06 06:03:46;;;;;;;7.53;4.32;;;15.90;99.90;;;;;;5055286;28;20029;-85
2021/09/06 06:06:12;;;;;;;10.05;4.57;;;15.80;99.90;;;;;;5054897;28;20025;-86
2021/09/06 06:08:38;;;;;;;12.68;4.50;;;15.70;99.90;;;;;;5055788;28;20029;-87
2021/09/06 06:11:04;;;;;;;5.05;3.80;;;15.80;99.90;;;;;;5054297;28;20029;-86
2021/09/06 06:13:29;;;;;;;5.28;4.18;;;15.70;99.90;;;;;;5054056;28;20377;-86
2021/09/06 06:15:55;;;;;;;9.25;4.60;;;15.80;99.90;;;;;;5054178;28;20032;-87
2021/09/06 06:18:20;;;;;;;8.55;4.55;;;15.70;99.90;;;;;;5053990;28;20029;-86
2021/09/06 06:20:46;;;;;;;6.75;4.70;;;15.90;99.90;;;;;;5056551;28;20362;-86
2021/09/06 06:23:12;;;;;;;5.95;4.50;;;16.00;99.90;;;;;;5063055;28;20017;-85
2021/09/06 06:25:38;;;;;;;7.88;4.90;;;16.20;99.90;;;;;;5058849;28;20525;-86
2021/09/06 06:28:03;;;;;;;7.50;4.60;;;16.30;99.90;;;;;;5056059;28;20021;-86
2021/09/06 06:30:29;;;;;;;8.90;4.65;;;16.40;99.90;;;;;;5054150;28;20043;-86
2021/09/06 06:32:55;;;;;;;5.40;4.47;;;16.50;99.90;;;;;;5053064;28;20025;-86
2021/09/06 06:35:21;;;;;;;7.57;4.88;;;16.40;99.90;;;;;;5053579;28;20040;-86
2021/09/06 06:37:46;;;;;;;5.68;4.00;;;16.50;99.90;;;;;;5053501;28;20025;-85
2021/09/06 06:40:13;;;;;;;8.27;4.78;;;16.70;99.90;;;;;;5054816;28;20108;-84
2021/09/06 06:42:39;;;;;;;8.20;4.22;;;16.90;99.90;;;;;;5053481;28;20025;-86
2021/09/06 06:45:05;;;;;;;9.75;5.03;;;16.70;99.90;;;;;;5053335;28;20542;-85
2021/09/06 06:47:31;;;;;;;8.80;4.30;;;16.70;99.90;;;;;;5053219;28;20393;-85
2021/09/06 06:49:57;;;;;;;8.70;4.47;;;16.70;99.90;;;;;;5053150;28;20104;-85
2021/09/06 06:52:22;;;;;;;7.85;4.70;;;16.80;99.90;;;;;;5053206;28;20499;-85
2021/09/06 06:54:48;;;;;;;6.68;4.90;;;16.70;99.90;;;;;;5054482;28;20104;-85
2021/09/06 06:57:14;;;;;;;9.15;4.72;;;16.70;99.90;;;;;;5053216;28;20024;-85
2021/09/06 06:59:39;;;;;;;11.50;4.70;;;16.80;99.90;;;;;;5053081;28;20035;-85
2021/09/06 07:02:05;;;;;;;6.70;4.40;;;16.80;99.90;;;;;;5053111;28;20397;-85
2021/09/06 07:04:31;;;;;;;8.07;5.38;;;16.80;99.90;;;;;;5054211;28;20035;-86
2021/09/06 07:06:56;;;;;;;7.97;4.97;;;17.00;99.90;;;;;;5052913;28;20025;-85
2021/09/06 07:09:22;;;;;;;5.43;4.53;;;17.00;99.90;;;;;;5052875;28;20113;-85
2021/09/06 07:11:48;;;;;;;5.75;4.47;;;17.00;99.90;;;;;;5052895;28;20083;-89
2021/09/06 07:14:13;;;;;;;5.60;4.13;;;17.00;99.90;;;;;;5053399;28;20059;-88
2021/09/06 07:16:39;;;;;;;7.65;4.55;;;17.30;99.90;;;;;;5053449;28;20083;-88
2021/09/06 07:19:05;;;;;;;8.02;5.00;;;17.40;99.90;;;;;;5053054;28;20053;-89
2021/09/06 07:21:30;;;;;;;8.52;4.97;;;17.50;99.90;;;;;;5053261;28;20025;-89
2021/09/06 07:23:56;;;;;;;6.82;4.50;;;17.50;99.90;;;;;;5053365;28;20384;-88
2021/09/06 07:26:22;;;;;;;6.10;4.30;;;17.70;99.90;;;;;;5053040;28;20102;-88
2021/09/06 07:28:48;;;;;;;11.43;4.95;;;17.90;99.90;;;;;;5053088;28;20384;-88
2021/09/06 07:31:14;;;;;;;8.80;4.80;;;18.00;99.90;;;;;;5053914;28;20055;-88
2021/09/06 07:33:39;;;;;;;11.40;4.90;;;18.30;99.90;;;;;;5052572;28;20025;-87
2021/09/06 07:36:05;;;;;;;8.68;4.75;;;18.50;99.90;;;;;;5053929;28;20389;-88
2021/09/06 07:38:31;;;;;;;9.20;4.97;;;18.60;99.90;;;;;;5052502;28;20032;-88
2021/09/06 07:40:57;;;;;;;13.38;5.43;;;18.60;99.90;;;;;;5053008;28;20025;-89
2021/09/06 07:43:23;;;;;;;7.13;4.53;;;18.70;99.90;;;;;;5053439;28;20053;-88
2021/09/06 07:45:49;;;;;;;6.72;4.78;;;18.90;99.90;;;;;;5053718;28;20043;-89
2021/09/06 07:48:15;;;;;;;8.75;4.82;;;19.10;99.90;;;;;;5052582;28;20028;-88
2021/09/06 07:50:42;;;;;;;7.65;5.25;;;19.20;99.90;;;;;;5052337;28;20029;-88
2021/09/06 07:53:07;;;;;;;12.48;4.88;;;19.50;99.90;;;;;;5052397;28;20388;-87
2021/09/06 07:55:34;;;;;;;9.40;5.32;;;19.70;99.90;;;;;;5052172;28;20029;-86
2021/09/06 07:58:00;;;;;;;7.43;4.82;;;19.50;99.90;;;;;;5053356;28;20021;-86
2021/09/06 08:00:25;;;;;;;6.63;4.82;;;19.50;99.90;;;;;;5052079;28;20028;-86
2021/09/06 08:02:51;;;;;;;7.70;4.50;;;19.60;99.90;;;;;;5052009;28;20515;-86
2021/09/06 08:05:19;;;;;;;16.90;4.85;;;19.90;99.90;;;;;;5051966;28;20028;-86
2021/09/06 08:07:44;;;;;;;8.30;4.80;;;20.20;99.90;;;;;;5051980;28;20033;-86
2021/09/06 08:10:10;;;;;;;10.57;4.45;;;20.30;99.90;;;;;;5051972;28;20025;-85
2021/09/06 08:12:37;;;;;;;9.55;4.85;;;20.40;99.90;;;;;;5052037;28;20024;-85
2021/09/06 08:15:07;;;;;;;12.98;4.78;;;20.60;99.90;;;;;;5051881;28;20048;-85
2021/09/06 08:17:34;;;;;;;11.30;4.68;;;20.80;99.90;;;;;;5051918;28;20032;-85
2021/09/06 08:20:05;;;;;;;8.93;4.70;;;21.00;99.90;;;;;;5052071;28;20029;-85
2021/09/06 08:22:30;;;;;;;13.52;4.65;;;21.10;99.90;;;;;;5052806;28;20021;-85
2021/09/06 08:24:56;;;;;;;7.55;4.53;;;21.20;99.90;;;;;;5052818;28;20036;-85
2021/09/06 08:27:22;;;;;;;9.75;4.40;;;21.30;99.90;;;;;;5035045;28;20506;-86
2021/09/06 08:29:48;;;;;;;9.57;4.43;;;21.30;99.90;;;;;;5015440;28;20056;-86
2021/09/06 08:32:14;;;;;;;17.20;4.78;;;21.50;99.90;;;;;;5033135;28;20101;-85
2021/09/06 08:34:40;;;;;;;7.30;4.72;;;21.50;99.90;;;;;;5015544;28;20076;-85
2021/09/06 08:37:06;;;;;;;8.70;4.80;;;21.60;99.90;;;;;;5015266;28;20470;-86
2021/09/06 08:39:32;;;;;;;13.65;4.78;;;21.70;99.90;;;;;;5015384;28;20108;-84
2021/09/06 08:42:00;;;;;;;5.75;4.30;;;21.90;99.90;;;;;;5033363;28;20056;-86
2021/09/06 08:44:26;;;;;;;5.75;4.35;;;22.00;99.90;;;;;;5015574;28;20022;-85
2021/09/06 08:46:54;;;;;;;7.22;3.97;;;21.90;99.90;;;;;;5015202;28;20084;-85
2021/09/06 08:49:20;;;;;;;7.82;4.78;;;22.20;99.90;;;;;;5032883;28;20021;-87
2021/09/06 08:51:46;;;;;;;6.38;5.03;;;22.40;99.90;;;;;;5015311;28;20021;-86
2021/09/06 08:54:12;;;;;;;7.95;4.80;;;22.50;99.90;;;;;;5015147;28;20021;-86
2021/09/06 08:56:38;;;;;;;9.63;4.68;;;22.50;99.90;;;;;;5018917;28;20037;-85
2021/09/06 08:59:05;;;;;;;8.38;4.82;;;22.60;99.90;;;;;;5018966;28;20032;-85
2021/09/06 09:01:43;;;;;;;10.30;4.50;;;22.80;99.90;;;;;;5019022;28;20092;-85
2021/09/06 09:04:27;;;;;;;6.72;4.82;;;23.00;99.90;;;;;;5018918;28;20022;-85
2021/09/06 09:06:57;;;;;;;7.07;4.93;;;23.20;99.90;;;;;;5018762;28;20021;-86
2021/09/06 09:09:35;;;;;;;9.05;5.07;;;23.40;99.90;;;;;;5019404;28;20454;-86
2021/09/06 09:12:22;;;;;;;8.00;4.97;;;23.40;99.90;;;;;;5018976;28;20504;-86
2021/09/06 09:14:50;;;;;;;6.60;4.43;;;23.50;99.90;;;;;;5018796;28;20080;-86
2021/09/06 09:17:17;;;;;;;10.85;4.70;;;23.50;99.90;;;;;;5018667;28;20022;-86
2021/09/06 09:19:43;;;;;;;8.02;4.90;;;23.40;99.90;;;;;;5036415;28;20052;-86
2021/09/06 09:22:11;;;;;;;7.97;4.63;;;23.50;99.90;;;;;;5018814;28;20063;-87
2021/09/06 09:24:37;;;;;;;6.90;4.32;;;23.70;99.90;;;;;;5036229;28;20032;-89
2021/09/06 09:27:11;;;;;;;7.75;4.65;;;23.80;99.90;;;;;;5046887;28;20450;-86
2021/09/06 09:29:43;;;;;;;8.98;5.28;;;24.00;99.90;;;;;;5054971;28;20025;-86
2021/09/06 09:32:12;;;;;;;13.05;4.85;;;24.00;99.90;;;;;;5054953;28;20111;-86
2021/09/06 09:34:39;;;;;;;10.35;4.80;;;24.40;99.90;;;;;;5054791;28;20032;-86
2021/09/06 09:37:05;;;;;;;8.52;5.43;;;24.40;99.90;;;;;;5054696;28;20560;-86
2021/09/06 09:39:33;;;;;;;8.18;5.35;;;24.50;99.90;;;;;;5055942;28;20028;-86
2021/09/06 09:42:10;;;;;;;7.03;4.78;;;24.60;99.90;;;;;;5055908;28;20021;-86
2021/09/06 09:44:48;;;;;;;7.97;5.55;;;24.80;99.90;;;;;;5054537;28;20075;-87
2021/09/06 09:47:19;;;;;;;8.60;4.75;;;25.00;99.90;;;;;;5056016;28;20049;-87
2021/09/06 09:49:46;;;;;;;7.47;4.50;;;24.90;99.90;;;;;;5054653;28;20013;-87
2021/09/06 09:52:11;;;;;;;9.68;5.18;;;25.10;99.90;;;;;;5054697;28;20029;-88
2021/09/06 09:54:37;;;;;;;7.15;4.90;;;25.30;99.90;;;;;;5054390;28;20029;-87
2021/09/06 09:57:03;;;;;;;6.45;4.88;;;25.00;98.50;;;;;;5054389;28;20030;-88
2021/09/06 09:59:29;;;;;;;7.22;4.20;;;25.10;99.80;;;;;;5054291;28;20026;-87
2021/09/06 10:02:19;;;;;;;5.38;4.47;;;25.10;99.70;;;;;;5054326;28;20031;-87
2021/09/06 10:04:51;;;;;;;7.82;4.75;;;25.20;99.50;;;;;;5055402;28;20017;-87
2021/09/06 10:07:23;;;;;;;7.80;4.82;;;25.40;99.80;;;;;;5053021;28;20021;-87
2021/09/06 10:09:49;;;;;;;7.13;4.60;;;25.70;98.10;;;;;;5054935;28;20045;-86
2021/09/06 10:12:20;;;;;;;5.97;5.10;;;25.60;98.40;;;;;;5054047;28;20021;-86
2021/09/06 10:15:00;;;;;;;6.93;4.70;;;25.70;97.60;;;;;;5053991;28;20393;-87
2021/09/06 10:17:39;;;;;;;8.15;5.15;;;25.80;97.10;;;;;;5054076;28;20507;-86
2021/09/06 10:20:11;;;;;;;9.32;4.63;;;25.70;97.30;;;;;;5054784;28;20488;-86
2021/09/06 10:22:37;;;;;;;6.90;5.05;;;26.00;97.60;;;;;;5053857;28;20021;-87
2021/09/06 10:25:07;;;;;;;6.13;4.68;;;26.20;97.00;;;;;;5055313;28;20021;-86
2021/09/06 10:27:36;;;;;;;7.93;4.55;;;26.50;96.30;;;;;;5053788;28;20501;-86
2021/09/06 10:30:11;;;;;;;6.40;4.80;;;26.70;96.20;;;;;;5054257;28;20048;-87
2021/09/06 10:32:45;;;;;;;5.70;4.40;;;26.60;94.50;;;;;;5054014;28;20389;-86
2021/09/06 10:35:19;;;;;;;7.55;4.60;;;26.60;94.50;;;;;;5053901;28;20033;-87
2021/09/06 10:37:47;;;;;;;6.95;4.50;;;26.60;95.10;;;;;;5055016;28;20481;-87
2021/09/06 10:40:24;;;;;;;16.40;5.53;;;26.70;94.40;;;;;;5054814;28;20104;-88
2021/09/06 10:42:51;;;;;;;7.10;4.65;;;27.00;94.10;;;;;;5053567;28;20040;-87
2021/09/06 10:45:17;;;;;;;8.73;4.97;;;27.30;93.10;;;;;;5053429;28;20095;-88
2021/09/06 10:47:43;;;;;;;9.32;4.45;;;27.30;93.00;;;;;;5053364;28;20021;-88
2021/09/06 10:50:18;;;;;;;9.75;4.90;;;27.80;91.90;;;;;;5053309;28;20070;-87
2021/09/06 10:52:45;;;;;;;9.52;4.25;;;28.00;92.30;;;;;;5053371;28;20021;-88
2021/09/06 10:55:12;;;;;;;7.07;4.40;;;28.00;90.70;;;;;;5053302;28;20111;-87
2021/09/06 10:57:42;;;;;;;14.00;4.60;;;28.40;91.10;;;;;;5054543;28;20100;-87
2021/09/06 11:00:15;;;;;;;5.40;4.30;;;28.60;91.20;;;;;;5053383;28;20064;-88
2021/09/06 11:02:41;;;;;;;10.07;4.70;;;28.50;91.80;;;;;;5036743;28;20056;-88
2021/09/06 11:05:09;;;;;;;7.75;4.35;;;28.80;90.80;;;;;;5053122;28;20029;-88
2021/09/06 11:07:35;;;;;;;5.40;4.50;;;29.10;90.40;;;;;;5054303;28;20101;-88
2021/09/06 11:10:12;;;;;;;5.55;4.55;;;29.30;88.20;;;;;;5053015;28;20115;-88
2021/09/06 11:12:39;;;;;;;5.88;4.25;;;29.30;88.10;;;;;;5054353;28;20047;-88
2021/09/06 11:15:06;;;;;;;8.77;4.30;;;29.40;84.70;;;;;;5053075;28;20028;-88
2021/09/06 11:17:32;;;;;;;5.68;4.05;;;29.50;85.90;;;;;;5052623;28;20036;-88
2021/09/06 11:19:59;;;;;;;5.45;4.10;;;29.50;85.30;;;;;;5052842;28;20028;-89
2021/09/06 11:22:27;;;;;;;6.65;4.55;;;29.70;85.80;;;;;;5052834;28;20392;-88
2021/09/06 11:24:58;;;;;;;6.40;4.13;;;29.80;80.50;;;;;;5052812;28;20021;-91
2021/09/06 11:27:28;;;;;;;4.10;3.67;;;29.50;80.60;;;;;;5036072;28;20041;-91
2021/09/06 11:29:54;;;;;;;6.78;3.80;;;29.70;77.20;;;;;;5017248;28;20389;-90
2021/09/06 11:32:20;;;;;;;5.25;3.90;;;30.00;76.80;;;;;;5017412;28;20025;-91
2021/09/06 11:34:48;;;;;;;5.90;4.35;;;29.80;78.10;;;;;;5017458;28;20228;-89
2021/09/06 11:37:14;;;;;;;6.07;4.13;;;30.00;78.20;;;;;;5016846;28;20022;-90
2021/09/06 11:39:45;;;;;;;5.72;4.22;;;30.10;79.20;;;;;;5017136;28;20036;-90
2021/09/06 11:42:12;;;;;;;5.50;3.90;;;30.60;78.00;;;;;;5017730;28;20022;-89
2021/09/06 11:44:38;;;;;;;7.60;4.28;;;30.50;75.20;;;;;;5016730;28;20053;-90
2021/09/06 11:47:04;;;;;;;4.40;4.00;;;30.40;75.80;;;;;;5016809;28;20072;-89
2021/09/06 11:49:30;;;;;;;6.78;3.90;;;30.70;79.10;;;;;;5016950;28;20121;-89
2021/09/06 11:52:06;;;;;;;7.43;3.88;;;31.10;70.90;;;;;;5016705;28;20450;-91
2021/09/06 11:54:41;;;;;;;6.13;4.05;;;31.10;73.40;;;;;;5016860;28;20393;-90
2021/09/06 11:57:07;;;;;;;10.90;4.20;;;30.90;73.20;;;;;;5016644;28;20453;-90
2021/09/06 11:59:32;;;;;;;4.60;4.10;;;31.10;72.40;;;;;;5017695;28;20063;-89
2021/09/06 12:01:58;;;;;;;4.97;4.28;;;31.70;69.90;;;;;;5034485;28;20026;-90
2021/09/06 12:04:24;;;;;;;5.32;3.97;;;32.00;69.60;;;;;;5016579;28;20064;-90
2021/09/06 12:06:49;;;;;;;4.72;3.83;;;32.00;70.10;;;;;;5016391;28;20040;-89
2021/09/06 12:09:17;;;;;;;6.82;3.63;;;31.90;72.30;;;;;;5016608;28;20025;-89
2021/09/06 12:11:43;;;;;;;4.63;3.85;;;31.80;72.30;;;;;;5015979;28;20025;-90
2021/09/06 12:14:09;;;;;;;6.18;4.10;;;31.90;70.90;;;;;;5016256;28;20045;-91
2021/09/06 12:16:37;;;;;;;5.00;3.90;;;31.50;69.60;;;;;;5036010;28;20052;-92
2021/09/06 12:19:16;;;;;;;5.40;4.28;;;32.10;70.90;;;;;;5016387;28;20030;-91
2021/09/06 12:21:43;;;;;;;7.10;4.22;;;32.60;69.60;;;;;;5016043;28;20026;-92
2021/09/06 12:24:09;;;;;;;7.38;3.95;;;32.50;68.60;;;;;;5016861;28;20025;-92
2021/09/06 12:26:42;;;;;;;6.45;4.03;;;32.80;68.20;;;;;;5033815;28;20490;-91
2021/09/06 12:29:08;;;;;;;8.73;4.03;;;33.00;67.00;;;;;;5016575;28;20040;-93
2021/09/06 12:31:43;;;;;;;5.57;4.28;;;32.80;66.80;;;;;;5020418;28;20112;-92
2021/09/06 12:34:10;;;;;;;4.55;3.75;;;32.10;67.80;;;;;;5020546;28;20033;-92
2021/09/06 12:36:36;;;;;;;6.18;4.18;;;31.90;67.60;;;;;;5020313;28;20389;-91
2021/09/06 12:39:01;;;;;;;4.70;3.95;;;31.90;67.00;;;;;;5038008;28;20121;-90
2021/09/06 12:41:29;;;;;;;5.63;4.32;;;32.40;66.20;;;;;;5037892;28;20032;-91
2021/09/06 12:43:58;;;;;;;5.82;3.90;;;32.60;65.80;;;;;;5020117;28;20029;-93